Time;durP1;ratioP1;P1;durP2;ratioP2;P2;SDS_P1;SDS_P2;PMS_P1;PMS_P2;Temp;Humidity;BMP_temperature;BMP_pressure;BME280_temperature;BME280_humidity;BME280_pressure;Samples;Min_cycle;Max_cycle;Signal;HPM_P1;HPM_P2
2023/10/29 06:02:35;;;;;;;4.03;2.20;;;;;;;;;;4953060;29;20480;-74
2023/10/29 06:05:01;;;;;;;3.53;1.90;;;;;;;;;;4954142;29;20500;-74
2023/10/29 06:07:27;;;;;;;6.50;1.90;;;;;;;;;;4954046;29;20421;-73
2023/10/29 06:09:53;;;;;;;3.83;2.03;;;;;;;;;;4954242;29;20420;-70
2023/10/29 06:12:19;;;;;;;3.47;1.87;;;;;;;;;;4953771;29;20439;-74
2023/10/29 06:14:46;;;;;;;3.00;1.83;;;;;;;;;;4984651;23;20605;-71
2023/10/29 06:17:12;;;;;;;4.47;2.30;;;;;;;;;;4973709;28;20404;-71
2023/10/29 06:19:38;;;;;;;4.97;2.07;;;;;;;;;;4973468;28;20760;-71
2023/10/29 06:22:08;;;;;;;4.63;2.00;;;;;;;;;;4973663;28;20427;-70
2023/10/29 06:24:34;;;;;;;2.83;1.93;;;;;;;;;;4973395;28;20994;-72
2023/10/29 06:27:01;;;;;;;2.90;1.80;;;;;;;;;;4973434;28;20981;-71
2023/10/29 06:29:27;;;;;;;3.70;2.00;;;;;;;;;;4973339;28;20470;-71
2023/10/29 06:31:53;;;;;;;4.23;2.63;;;;;;;;;;4973209;28;20408;-71
2023/10/29 06:34:19;;;;;;;4.20;2.20;;;;;;;;;;4973097;28;20450;-70
2023/10/29 06:36:45;;;;;;;3.70;2.30;;;;;;;;;;4973269;28;20963;-71
2023/10/29 06:39:11;;;;;;;2.50;1.90;;;;;;;;;;4973354;28;20447;-70
2023/10/29 06:41:36;;;;;;;2.70;1.90;;;;;;;;;;4973213;28;20911;-71
2023/10/29 06:44:02;;;;;;;4.00;2.40;;;;;;;;;;4973670;28;20966;-71
2023/10/29 06:46:28;;;;;;;7.73;1.80;;;;;;;;;;4975494;28;20974;-70
2023/10/29 06:48:54;;;;;;;2.93;1.93;;;;;;;;;;4974134;28;20487;-72
2023/10/29 06:51:20;;;;;;;5.30;2.47;;;;;;;;;;4973468;28;20899;-71
2023/10/29 06:53:46;;;;;;;3.93;2.40;;;;;;;;;;4974116;28;20502;-71
2023/10/29 06:56:12;;;;;;;3.53;2.30;;;;;;;;;;4977663;28;20825;-71
2023/10/29 06:58:38;;;;;;;6.40;2.23;;;;;;;;;;4977473;28;20752;-71
2023/10/29 07:01:05;;;;;;;4.57;2.40;;;;;;;;;;4960013;28;20430;-71
2023/10/29 07:03:32;;;;;;;4.23;2.20;;;;;;;;;;4977292;28;20505;-71
2023/10/29 07:06:08;;;;;;;4.37;2.23;;;;;;;;;;4977331;28;20487;-71
2023/10/29 07:08:34;;;;;;;4.90;2.70;;;;;;;;;;4977235;28;20440;-71
2023/10/29 07:11:01;;;;;;;6.67;2.27;;;;;;;;;;4960192;28;20427;-71
2023/10/29 07:13:27;;;;;;;3.30;2.57;;;;;;;;;;4976960;28;20451;-71
2023/10/29 07:15:54;;;;;;;3.93;2.67;;;;;;;;;;4976964;28;20449;-71
2023/10/29 07:18:20;;;;;;;4.13;1.80;;;;;;;;;;4976771;28;20462;-71
2023/10/29 07:20:46;;;;;;;9.83;2.67;;;;;;;;;;4976716;28;20420;-71
2023/10/29 07:23:13;;;;;;;4.50;3.00;;;;;;;;;;4977270;28;20431;-71
2023/10/29 07:25:39;;;;;;;3.13;2.30;;;;;;;;;;4976733;28;20852;-70
2023/10/29 07:28:05;;;;;;;3.40;2.30;;;;;;;;;;4976625;28;20443;-71
2023/10/29 07:30:31;;;;;;;2.47;1.70;;;;;;;;;;4959112;28;20424;-70
2023/10/29 07:32:57;;;;;;;3.10;2.37;;;;;;;;;;4976761;28;20831;-71
2023/10/29 07:35:23;;;;;;;7.53;2.43;;;;;;;;;;4981499;28;20508;-70
2023/10/29 07:37:49;;;;;;;6.77;2.60;;;;;;;;;;4976932;28;20416;-71
2023/10/29 07:40:16;;;;;;;6.30;2.87;;;;;;;;;;4976427;28;20903;-72
2023/10/29 07:42:42;;;;;;;4.30;2.27;;;;;;;;;;4976450;28;20478;-70
2023/10/29 07:45:08;;;;;;;5.27;2.43;;;;;;;;;;4976501;28;20451;-71
2023/10/29 07:47:34;;;;;;;4.43;2.30;;;;;;;;;;4976546;28;20458;-70
2023/10/29 07:50:00;;;;;;;5.80;2.73;;;;;;;;;;4976044;28;20399;-70
2023/10/29 07:52:25;;;;;;;4.77;2.70;;;;;;;;;;4976743;28;20447;-70
2023/10/29 07:54:51;;;;;;;4.93;2.73;;;;;;;;;;4975949;28;20494;-70
2023/10/29 07:57:18;;;;;;;5.20;2.30;;;;;;;;;;4976771;28;20438;-71
2023/10/29 07:59:44;;;;;;;2.87;2.30;;;;;;;;;;4976503;28;20483;-71
2023/10/29 08:02:10;;;;;;;9.93;2.60;;;;;;;;;;4976684;28;20440;-70
2023/10/29 08:04:36;;;;;;;3.60;2.60;;;;;;;;;;4976220;28;20486;-71
2023/10/29 08:07:04;;;;;;;6.07;3.27;;;;;;;;;;4975763;28;20864;-71
2023/10/29 08:09:30;;;;;;;14.17;3.00;;;;;;;;;;4976910;28;20400;-70
2023/10/29 08:11:56;;;;;;;8.23;2.43;;;;;;;;;;4976510;28;20408;-71
2023/10/29 08:14:21;;;;;;;6.17;2.60;;;;;;;;;;4980779;28;20478;-71
2023/10/29 08:16:47;;;;;;;2.57;2.40;;;;;;;;;;4987172;28;20435;-71
2023/10/29 08:19:13;;;;;;;3.00;2.27;;;;;;;;;;4977298;28;20411;-71
2023/10/29 08:21:39;;;;;;;2.83;2.40;;;;;;;;;;4958827;28;20435;-70
2023/10/29 08:24:05;;;;;;;4.77;2.20;;;;;;;;;;4976171;28;20455;-70
2023/10/29 08:26:32;;;;;;;6.97;2.30;;;;;;;;;;4975712;28;20415;-71
2023/10/29 08:28:58;;;;;;;4.70;2.20;;;;;;;;;;4975589;28;20471;-71
2023/10/29 08:31:24;;;;;;;4.20;2.47;;;;;;;;;;4975633;28;20471;-70
2023/10/29 08:33:50;;;;;;;7.43;3.23;;;;;;;;;;4975141;28;20431;-71
2023/10/29 08:36:17;;;;;;;5.67;2.77;;;;;;;;;;4975616;28;20419;-70
2023/10/29 08:38:43;;;;;;;3.10;2.30;;;;;;;;;;4975616;28;20432;-71
2023/10/29 08:41:12;;;;;;;5.73;2.40;;;;;;;;;;4958293;28;20852;-70
2023/10/29 08:43:38;;;;;;;2.27;1.90;;;;;;;;;;4975798;28;20432;-71
2023/10/29 08:46:04;;;;;;;2.97;2.20;;;;;;;;;;4975594;28;20875;-71
2023/10/29 08:48:31;;;;;;;4.37;2.60;;;;;;;;;;4975444;28;20486;-70
2023/10/29 08:50:57;;;;;;;4.37;2.50;;;;;;;;;;4975362;28;20412;-71
2023/10/29 08:53:23;;;;;;;2.90;2.40;;;;;;;;;;4975672;28;20506;-71
2023/10/29 08:55:51;;;;;;;7.03;2.27;;;;;;;;;;4974834;28;20451;-71
2023/10/29 08:58:17;;;;;;;4.10;2.30;;;;;;;;;;4975380;28;20408;-71
2023/10/29 09:00:45;;;;;;;4.27;2.70;;;;;;;;;;4974646;28;20412;-70
2023/10/29 09:03:13;;;;;;;6.93;2.00;;;;;;;;;;4956406;28;20582;-69
2023/10/29 09:05:39;;;;;;;3.73;2.40;;;;;;;;;;4976935;28;20558;-70
2023/10/29 09:08:06;;;;;;;5.03;3.13;;;;;;;;;;4978796;28;20439;-70
2023/10/29 09:10:31;;;;;;;9.97;2.53;;;;;;;;;;4975085;28;20827;-70
2023/10/29 09:12:57;;;;;;;4.97;2.80;;;;;;;;;;4974850;28;20404;-70
2023/10/29 09:15:23;;;;;;;5.70;2.30;;;;;;;;;;4957149;28;20472;-71
2023/10/29 09:17:49;;;;;;;5.37;2.67;;;;;;;;;;4973994;28;20428;-70
2023/10/29 09:20:15;;;;;;;6.30;2.83;;;;;;;;;;4976900;28;20422;-73
2023/10/29 09:22:41;;;;;;;5.00;2.73;;;;;;;;;;4979563;28;20412;-70
2023/10/29 09:25:09;;;;;;;5.93;2.40;;;;;;;;;;4976694;28;20463;-70
2023/10/29 09:27:35;;;;;;;8.40;3.37;;;;;;;;;;4974407;28;20446;-70
2023/10/29 09:30:01;;;;;;;4.57;2.97;;;;;;;;;;4973854;28;20464;-70
2023/10/29 09:32:27;;;;;;;4.47;2.50;;;;;;;;;;4974218;28;20408;-72
2023/10/29 09:34:54;;;;;;;4.40;2.40;;;;;;;;;;4974293;28;20515;-70
2023/10/29 09:37:21;;;;;;;5.57;2.47;;;;;;;;;;4974858;28;20426;-71
2023/10/29 09:39:47;;;;;;;7.23;2.77;;;;;;;;;;4983582;28;20800;-71
2023/10/29 09:42:18;;;;;;;7.00;3.20;;;;;;;;;;4976247;28;20416;-70
2023/10/29 09:44:45;;;;;;;5.80;2.70;;;;;;;;;;4974585;28;20562;-70
2023/10/29 09:47:17;;;;;;;5.37;2.93;;;;;;;;;;4974198;28;20416;-71
2023/10/29 09:49:43;;;;;;;7.80;3.70;;;;;;;;;;4973712;28;20527;-71
2023/10/29 09:52:09;;;;;;;7.87;4.40;;;;;;;;;;4974338;28;20419;-71
2023/10/29 09:54:39;;;;;;;6.63;3.20;;;;;;;;;;4974420;28;20434;-71
2023/10/29 09:57:06;;;;;;;8.10;3.93;;;;;;;;;;4975525;28;20416;-72
2023/10/29 09:59:32;;;;;;;7.00;4.30;;;;;;;;;;4976673;28;20412;-70
2023/10/29 10:01:58;;;;;;;6.90;4.10;;;;;;;;;;4978257;28;20416;-70
2023/10/29 10:04:24;;;;;;;11.80;3.73;;;;;;;;;;4978485;28;20506;-70
2023/10/29 10:06:50;;;;;;;7.00;3.70;;;;;;;;;;4977247;28;20408;-72
2023/10/29 10:09:16;;;;;;;6.80;3.03;;;;;;;;;;4975590;28;20432;-71
2023/10/29 10:11:42;;;;;;;6.73;3.13;;;;;;;;;;4975781;28;20431;-71
2023/10/29 10:14:08;;;;;;;8.43;3.27;;;;;;;;;;4973727;28;20459;-70
2023/10/29 10:16:34;;;;;;;9.13;3.70;;;;;;;;;;4973723;28;20543;-70
2023/10/29 10:19:00;;;;;;;5.17;3.23;;;;;;;;;;4974931;28;20411;-70
2023/10/29 10:21:39;;;;;;;4.60;2.93;;;;;;;;;;4973694;28;20770;-72
2023/10/29 10:24:06;;;;;;;4.80;3.03;;;;;;;;;;4956124;28;20458;-71
2023/10/29 10:26:34;;;;;;;9.83;2.87;;;;;;;;;;4973510;28;20760;-72
2023/10/29 10:29:00;;;;;;;5.23;2.83;;;;;;;;;;4955837;28;20415;-71
2023/10/29 10:31:27;;;;;;;8.03;3.47;;;;;;;;;;4975668;28;20423;-70
2023/10/29 10:34:15;;;;;;;7.40;3.40;;;;;;;;;;4976430;28;20439;-71
2023/10/29 10:36:42;;;;;;;5.67;3.13;;;;;;;;;;4975654;28;20408;-70
2023/10/29 10:39:08;;;;;;;4.80;3.10;;;;;;;;;;4976033;28;20412;-70
2023/10/29 10:41:38;;;;;;;8.73;3.07;;;;;;;;;;4947882;29;20511;-71
2023/10/29 10:44:14;;;;;;;5.13;3.03;;;;;;;;;;4954273;29;20471;-71
2023/10/29 10:46:42;;;;;;;4.00;3.13;;;;;;;;;;4954145;29;20412;-71
2023/10/29 10:49:09;;;;;;;6.13;2.93;;;;;;;;;;4964150;28;20891;-70
2023/10/29 10:51:36;;;;;;;5.07;3.53;;;;;;;;;;4972749;28;20431;-71
2023/10/29 10:54:03;;;;;;;6.10;3.70;;;;;;;;;;4973035;28;20942;-71
2023/10/29 10:56:33;;;;;;;5.80;2.93;;;;;;;;;;4955881;28;20428;-71
2023/10/29 10:58:59;;;;;;;9.50;3.93;;;;;;;;;;4973014;28;20483;-71
2023/10/29 11:01:27;;;;;;;5.13;3.17;;;;;;;;;;4972931;28;20411;-71
2023/10/29 11:03:54;;;;;;;5.60;3.33;;;;;;;;;;4973768;28;20459;-71
2023/10/29 11:06:21;;;;;;;4.37;2.83;;;;;;;;;;4970093;28;20932;-72
2023/10/29 11:08:47;;;;;;;5.83;3.23;;;;;;;;;;4962661;29;20413;-71
2023/10/29 11:11:14;;;;;;;7.00;3.13;;;;;;;;;;4956735;29;20419;-71
2023/10/29 11:13:41;;;;;;;4.47;2.67;;;;;;;;;;4953933;29;20456;-71
2023/10/29 11:16:21;;;;;;;4.93;3.07;;;;;;;;;;4936528;29;20508;-70
2023/10/29 11:18:46;;;;;;;4.80;3.60;;;;;;;;;;4971097;28;20449;-70
2023/10/29 11:21:29;;;;;;;7.93;3.27;;;;;;;;;;4973065;28;20412;-71
2023/10/29 11:24:14;;;;;;;6.77;3.27;;;;;;;;;;4973120;28;20471;-70
2023/10/29 11:26:40;;;;;;;5.90;3.00;;;;;;;;;;4955710;28;20415;-71
2023/10/29 11:29:06;;;;;;;6.23;3.00;;;;;;;;;;4973078;28;20404;-71
2023/10/29 11:31:32;;;;;;;7.43;3.43;;;;;;;;;;4972928;28;20536;-71
2023/10/29 11:33:58;;;;;;;6.60;3.07;;;;;;;;;;4973058;28;20447;-71
2023/10/29 11:36:34;;;;;;;4.40;2.53;;;;;;;;;;4972475;28;20428;-71
2023/10/29 11:39:16;;;;;;;5.87;2.93;;;;;;;;;;4956101;28;20415;-71
2023/10/29 11:41:45;;;;;;;5.93;2.90;;;;;;;;;;4975560;28;20467;-70
2023/10/29 11:44:24;;;;;;;4.10;2.40;;;;;;;;;;4977211;28;20463;-70
2023/10/29 11:46:56;;;;;;;5.83;3.00;;;;;;;;;;4976533;28;20403;-70
2023/10/29 11:49:26;;;;;;;4.30;2.67;;;;;;;;;;4976595;28;20424;-70
2023/10/29 11:51:54;;;;;;;6.07;2.83;;;;;;;;;;4976682;28;20412;-70
2023/10/29 11:54:20;;;;;;;7.37;2.90;;;;;;;;;;4959397;28;20934;-70
2023/10/29 11:56:47;;;;;;;5.33;2.60;;;;;;;;;;4977016;28;20474;-70
2023/10/29 11:59:13;;;;;;;6.33;2.47;;;;;;;;;;4976190;28;20419;-71
2023/10/29 12:01:39;;;;;;;4.80;2.70;;;;;;;;;;4976751;28;20431;-71
2023/10/29 12:04:05;;;;;;;4.37;2.60;;;;;;;;;;4976303;28;20468;-71
2023/10/29 12:06:38;;;;;;;4.53;2.23;;;;;;;;;;4976511;28;20503;-71
2023/10/29 12:09:13;;;;;;;4.13;2.57;;;;;;;;;;4978305;28;20441;-70
2023/10/29 12:11:39;;;;;;;6.80;2.50;;;;;;;;;;4986148;28;20459;-70
2023/10/29 12:14:05;;;;;;;4.60;2.30;;;;;;;;;;4998327;23;20507;-72
2023/10/29 12:16:32;;;;;;;11.60;4.67;;;;;;;;;;4975501;28;20891;-72
2023/10/29 12:18:58;;;;;;;8.30;4.40;;;;;;;;;;4958152;28;20423;-72
2023/10/29 12:21:24;;;;;;;6.83;2.97;;;;;;;;;;4975809;28;20397;-72
2023/10/29 12:23:51;;;;;;;6.27;2.60;;;;;;;;;;4975698;28;20855;-72
2023/10/29 12:26:18;;;;;;;6.77;2.80;;;;;;;;;;4975467;28;20491;-72
2023/10/29 12:28:45;;;;;;;6.13;2.10;;;;;;;;;;4975540;28;20416;-72
2023/10/29 12:31:23;;;;;;;6.07;2.33;;;;;;;;;;4975377;28;20411;-72
2023/10/29 12:33:56;;;;;;;4.10;2.20;;;;;;;;;;4975357;28;20432;-72
2023/10/29 12:36:23;;;;;;;6.27;2.30;;;;;;;;;;4974743;28;20898;-72
2023/10/29 12:38:50;;;;;;;4.83;2.00;;;;;;;;;;4957880;28;20510;-72
2023/10/29 12:41:16;;;;;;;4.13;3.20;;;;;;;;;;4976291;28;20442;-72
2023/10/29 12:43:42;;;;;;;4.40;1.87;;;;;;;;;;4975169;28;20471;-74
2023/10/29 12:46:15;;;;;;;6.33;2.20;;;;;;;;;;4975632;28;20416;-73
2023/10/29 12:48:57;;;;;;;4.77;2.50;;;;;;;;;;4957878;28;20499;-74
2023/10/29 12:51:33;;;;;;;5.03;2.40;;;;;;;;;;4974819;28;20495;-69
2023/10/29 12:54:19;;;;;;;3.20;2.13;;;;;;;;;;4976705;28;20427;-72
2023/10/29 12:56:57;;;;;;;3.70;2.57;;;;;;;;;;4970050;28;20501;-76
2023/10/29 12:59:28;;;;;;;3.10;1.93;;;;;;;;;;4957059;28;20435;-72
2023/10/29 13:01:55;;;;;;;2.93;1.60;;;;;;;;;;4974271;28;20781;-71
2023/10/29 13:04:23;;;;;;;2.77;1.93;;;;;;;;;;4974663;28;20455;-71
2023/10/29 13:06:48;;;;;;;4.50;1.90;;;;;;;;;;4974171;28;20945;-71
2023/10/29 13:09:18;;;;;;;7.27;2.77;;;;;;;;;;4958755;28;20417;-71
2023/10/29 13:11:48;;;;;;;3.23;2.20;;;;;;;;;;4970949;28;20425;-71
2023/10/29 13:14:14;;;;;;;4.07;2.20;;;;;;;;;;4955339;28;20455;-71
2023/10/29 13:16:41;;;;;;;8.63;3.80;;;;;;;;;;4965071;28;20432;-71
2023/10/29 13:19:07;;;;;;;14.43;4.30;;;;;;;;;;4974588;28;20550;-71
2023/10/29 13:21:34;;;;;;;3.70;1.80;;;;;;;;;;4975285;28;20907;-70
2023/10/29 13:24:00;;;;;;;4.80;2.33;;;;;;;;;;4974489;28;20464;-70
2023/10/29 13:26:26;;;;;;;3.80;2.23;;;;;;;;;;4974383;28;20435;-71
2023/10/29 13:28:52;;;;;;;3.00;2.20;;;;;;;;;;4974315;28;20431;-71
2023/10/29 13:31:18;;;;;;;5.23;2.83;;;;;;;;;;4974425;28;20420;-71
2023/10/29 13:33:45;;;;;;;3.67;2.10;;;;;;;;;;4974184;28;20871;-72
2023/10/29 13:36:11;;;;;;;4.33;2.37;;;;;;;;;;4966256;28;20436;-71
2023/10/29 13:38:38;;;;;;;8.93;1.80;;;;;;;;;;4976020;28;20439;-72
2023/10/29 13:41:04;;;;;;;3.70;1.93;;;;;;;;;;4974138;28;20446;-72
2023/10/29 13:43:30;;;;;;;3.07;1.93;;;;;;;;;;4974953;28;21005;-71
2023/10/29 13:45:57;;;;;;;3.20;1.67;;;;;;;;;;4959984;28;20962;-71
2023/10/29 13:48:23;;;;;;;1.97;1.50;;;;;;;;;;4977345;28;20443;-72
2023/10/29 13:50:49;;;;;;;4.77;1.73;;;;;;;;;;4977802;28;20428;-71
2023/10/29 13:53:15;;;;;;;2.13;1.70;;;;;;;;;;4977794;28;20435;-71
2023/10/29 13:55:41;;;;;;;5.40;2.10;;;;;;;;;;4974162;28;20404;-72
2023/10/29 13:58:07;;;;;;;3.73;2.50;;;;;;;;;;4976718;28;20466;-72
2023/10/29 14:00:33;;;;;;;4.27;2.70;;;;;;;;;;4976597;28;20518;-71
2023/10/29 14:02:59;;;;;;;7.13;3.13;;;;;;;;;;4976457;28;20427;-71
2023/10/29 14:05:25;;;;;;;3.50;2.33;;;;;;;;;;4974207;28;20514;-72
2023/10/29 14:07:54;;;;;;;8.00;2.07;;;;;;;;;;4973125;28;20434;-71
2023/10/29 14:10:20;;;;;;;4.60;2.37;;;;;;;;;;4972969;28;20428;-71
2023/10/29 14:12:46;;;;;;;5.13;2.77;;;;;;;;;;4972756;28;20427;-72
2023/10/29 14:15:12;;;;;;;4.73;2.53;;;;;;;;;;4972900;28;20455;-71
2023/10/29 14:17:38;;;;;;;4.67;2.20;;;;;;;;;;4973027;28;20427;-71
2023/10/29 14:20:06;;;;;;;4.20;2.50;;;;;;;;;;4972712;28;20431;-71
2023/10/29 14:22:32;;;;;;;9.10;3.00;;;;;;;;;;4973199;28;20435;-71
2023/10/29 14:24:58;;;;;;;4.40;3.50;;;;;;;;;;4972982;28;20788;-71
2023/10/29 14:27:24;;;;;;;8.30;4.27;;;;;;;;;;4973177;28;20907;-72
2023/10/29 14:29:50;;;;;;;11.10;5.80;;;;;;;;;;4972666;28;20432;-71
2023/10/29 14:32:16;;;;;;;11.73;6.10;;;;;;;;;;4956893;28;20435;-71
2023/10/29 14:34:42;;;;;;;26.93;11.30;;;;;;;;;;4989047;28;20471;-71
2023/10/29 14:37:08;;;;;;;14.40;6.77;;;;;;;;;;4994814;28;20424;-71
2023/10/29 14:39:34;;;;;;;7.63;3.47;;;;;;;;;;4967482;28;20515;-71
2023/10/29 14:42:00;;;;;;;9.50;3.73;;;;;;;;;;4972902;28;20852;-70
2023/10/29 14:44:26;;;;;;;8.00;3.60;;;;;;;;;;4973131;28;20478;-73
2023/10/29 14:46:52;;;;;;;8.90;3.40;;;;;;;;;;4969042;28;20439;-70
2023/10/29 14:49:18;;;;;;;4.33;2.63;;;;;;;;;;4968068;28;20432;-74
2023/10/29 14:51:44;;;;;;;4.90;3.20;;;;;;;;;;4972647;28;20408;-75
2023/10/29 14:54:10;;;;;;;5.03;3.03;;;;;;;;;;4973076;28;20436;-74
2023/10/29 14:56:36;;;;;;;5.83;3.50;;;;;;;;;;4972785;28;20864;-74
2023/10/29 14:59:03;;;;;;;13.47;3.70;;;;;;;;;;4955294;28;20479;-70
2023/10/29 15:01:30;;;;;;;9.87;5.43;;;;;;;;;;4972535;28;20850;-72
2023/10/29 15:03:56;;;;;;;12.43;6.10;;;;;;;;;;4972819;28;20467;-71
2023/10/29 15:06:22;;;;;;;15.50;6.43;;;;;;;;;;4972951;28;20842;-71
2023/10/29 15:08:50;;;;;;;10.30;6.10;;;;;;;;;;4972693;28;20478;-71
2023/10/29 15:11:17;;;;;;;16.93;7.47;;;;;;;;;;4972511;28;20514;-71
2023/10/29 15:13:43;;;;;;;11.77;5.60;;;;;;;;;;4972811;28;20822;-71
2023/10/29 15:16:09;;;;;;;16.27;7.23;;;;;;;;;;4973731;28;20418;-72
2023/10/29 15:18:35;;;;;;;11.97;5.67;;;;;;;;;;4968188;28;20911;-72
2023/10/29 15:21:10;;;;;;;12.13;4.83;;;;;;;;;;4976479;28;20820;-73
2023/10/29 15:23:37;;;;;;;10.97;5.27;;;;;;;;;;4976176;28;20449;-72
2023/10/29 15:26:03;;;;;;;10.20;4.77;;;;;;;;;;4976703;28;20404;-71
2023/10/29 15:28:29;;;;;;;8.00;4.30;;;;;;;;;;4976648;28;20427;-73
2023/10/29 15:30:55;;;;;;;13.60;6.33;;;;;;;;;;4976066;28;20490;-71
2023/10/29 15:33:21;;;;;;;10.97;4.70;;;;;;;;;;4959017;28;20431;-71
2023/10/29 15:35:47;;;;;;;7.27;4.67;;;;;;;;;;4976084;28;20428;-71
2023/10/29 15:38:13;;;;;;;6.67;3.37;;;;;;;;;;4975769;28;21000;-71
2023/10/29 15:40:40;;;;;;;6.60;3.73;;;;;;;;;;4975458;28;20957;-72
2023/10/29 15:43:06;;;;;;;8.93;3.77;;;;;;;;;;4976148;28;20424;-72
2023/10/29 15:45:32;;;;;;;15.53;4.97;;;;;;;;;;4976492;28;20470;-71
2023/10/29 15:47:58;;;;;;;8.00;4.30;;;;;;;;;;4975999;28;20490;-72
2023/10/29 15:50:24;;;;;;;8.50;4.70;;;;;;;;;;4975476;28;20427;-72
2023/10/29 15:52:50;;;;;;;6.97;4.47;;;;;;;;;;4976064;28;20432;-72
2023/10/29 15:55:16;;;;;;;7.93;4.00;;;;;;;;;;4958487;28;20487;-72
2023/10/29 15:57:42;;;;;;;11.97;5.57;;;;;;;;;;4975845;28;20474;-72
2023/10/29 16:00:09;;;;;;;15.73;6.27;;;;;;;;;;4976098;28;20415;-71
2023/10/29 16:02:35;;;;;;;13.73;5.97;;;;;;;;;;4976110;28;20420;-72
2023/10/29 16:05:01;;;;;;;13.80;7.73;;;;;;;;;;4973600;28;20809;-72
2023/10/29 16:07:27;;;;;;;18.33;7.10;;;;;;;;;;4969683;28;20440;-71
2023/10/29 16:09:53;;;;;;;17.80;6.90;;;;;;;;;;4965964;28;20442;-72
2023/10/29 16:12:19;;;;;;;11.13;5.30;;;;;;;;;;4968845;28;20512;-73
2023/10/29 16:14:46;;;;;;;17.57;8.50;;;;;;;;;;4965954;28;20466;-74
2023/10/29 16:17:13;;;;;;;12.43;5.97;;;;;;;;;;4975036;28;20469;-73
2023/10/29 16:19:39;;;;;;;12.73;6.37;;;;;;;;;;4953454;28;20936;-72
2023/10/29 16:22:05;;;;;;;13.37;5.27;;;;;;;;;;4974156;28;20451;-72
2023/10/29 16:24:32;;;;;;;10.87;5.63;;;;;;;;;;4970244;28;20534;-73
2023/10/29 16:26:58;;;;;;;18.27;6.80;;;;;;;;;;4963845;28;20417;-71
2023/10/29 16:29:24;;;;;;;26.43;11.87;;;;;;;;;;4964141;28;20435;-73
2023/10/29 16:31:50;;;;;;;16.90;8.60;;;;;;;;;;4966925;28;20795;-70
2023/10/29 16:34:16;;;;;;;16.10;6.73;;;;;;;;;;4959035;28;20452;-74
2023/10/29 16:36:42;;;;;;;27.17;10.10;;;;;;;;;;4974332;28;20424;-70
2023/10/29 16:39:08;;;;;;;21.67;8.10;;;;;;;;;;4986153;28;20435;-71
2023/10/29 16:41:34;;;;;;;16.23;8.47;;;;;;;;;;4988356;28;20854;-70
2023/10/29 16:44:01;;;;;;;16.53;9.63;;;;;;;;;;4986670;28;20463;-71
2023/10/29 16:46:29;;;;;;;14.13;7.53;;;;;;;;;;4984063;28;20416;-71
2023/10/29 16:48:56;;;;;;;21.50;9.73;;;;;;;;;;4974569;28;20935;-71
2023/10/29 16:51:21;;;;;;;12.67;7.10;;;;;;;;;;4972363;28;20440;-73
2023/10/29 16:53:47;;;;;;;10.97;5.80;;;;;;;;;;4955870;29;20433;-73
2023/10/29 16:56:13;;;;;;;21.53;9.20;;;;;;;;;;4955861;29;20413;-75
2023/10/29 16:58:41;;;;;;;12.93;6.23;;;;;;;;;;4968278;28;20955;-74
2023/10/29 17:01:10;;;;;;;18.83;7.13;;;;;;;;;;4974514;28;20428;-72
2023/10/29 17:03:36;;;;;;;16.13;6.97;;;;;;;;;;4967097;28;20476;-73
2023/10/29 17:06:04;;;;;;;20.90;7.50;;;;;;;;;;4966706;28;20499;-72
2023/10/29 17:08:30;;;;;;;20.37;8.97;;;;;;;;;;4974876;28;20408;-72
2023/10/29 17:10:57;;;;;;;10.67;3.10;;;;;;;;;;4957463;28;20435;-73
2023/10/29 17:13:23;;;;;;;4.50;3.00;;;;;;;;;;4957643;28;20562;-71
2023/10/29 17:15:56;;;;;;;11.77;3.40;;;;;;;;;;4957353;28;20466;-72
2023/10/29 17:18:22;;;;;;;8.20;3.40;;;;;;;;;;4973625;28;20447;-72
2023/10/29 17:20:51;;;;;;;8.40;3.23;;;;;;;;;;4966471;28;20411;-72
2023/10/29 17:23:17;;;;;;;7.73;3.13;;;;;;;;;;4973904;28;20404;-73
2023/10/29 17:25:43;;;;;;;9.23;3.00;;;;;;;;;;4956689;28;20467;-73
2023/10/29 17:28:09;;;;;;;3.87;2.33;;;;;;;;;;4940330;29;20487;-70
2023/10/29 17:30:35;;;;;;;7.43;2.13;;;;;;;;;;4962550;28;20432;-71
2023/10/29 17:33:01;;;;;;;4.70;2.53;;;;;;;;;;4955935;28;20420;-71
2023/10/29 17:35:30;;;;;;;9.53;2.03;;;;;;;;;;4980420;28;20491;-74
2023/10/29 17:37:56;;;;;;;3.03;1.90;;;;;;;;;;4993410;28;20424;-71
2023/10/29 17:40:24;;;;;;;7.43;2.47;;;;;;;;;;4947603;29;20435;-72
2023/10/29 17:42:50;;;;;;;1.83;1.63;;;;;;;;;;4954933;28;20435;-73
2023/10/29 17:45:16;;;;;;;2.00;1.70;;;;;;;;;;4954969;29;20671;-73
2023/10/29 17:47:42;;;;;;;2.67;2.17;;;;;;;;;;4955400;28;20504;-74
2023/10/29 17:50:08;;;;;;;3.53;1.83;;;;;;;;;;4972362;28;20440;-74
2023/10/29 17:52:35;;;;;;;2.20;1.73;;;;;;;;;;4953961;28;20431;-72
2023/10/29 17:55:01;;;;;;;2.30;1.70;;;;;;;;;;4958442;28;20445;-72
2023/10/29 17:57:27;;;;;;;2.03;1.80;;;;;;;;;;4949864;28;20428;-71
2023/10/29 17:59:53;;;;;;;1.90;1.90;;;;;;;;;;4959140;28;20471;-70
2023/10/29 18:02:19;;;;;;;1.47;1.30;;;;;;;;;;4954302;28;20930;-70
2023/10/29 18:04:45;;;;;;;3.07;1.57;;;;;;;;;;4971576;28;20503;-70
2023/10/29 18:07:11;;;;;;;1.77;1.40;;;;;;;;;;4961676;28;20436;-70
2023/10/29 18:09:37;;;;;;;3.10;1.57;;;;;;;;;;4965662;28;20632;-71
2023/10/29 18:12:03;;;;;;;1.83;1.50;;;;;;;;;;4973552;28;20404;-70
2023/10/29 18:14:29;;;;;;;1.60;1.50;;;;;;;;;;4996738;23;20534;-71
2023/10/29 18:16:55;;;;;;;2.07;1.40;;;;;;;;;;4972758;28;20938;-71
2023/10/29 18:19:20;;;;;;;3.83;1.27;;;;;;;;;;4971790;28;20418;-71
2023/10/29 18:21:46;;;;;;;1.20;1.10;;;;;;;;;;4972974;28;20416;-71
2023/10/29 18:24:17;;;;;;;1.80;1.60;;;;;;;;;;4967468;28;20481;-72
2023/10/29 18:26:43;;;;;;;1.57;1.50;;;;;;;;;;4953830;29;20799;-71
2023/10/29 18:29:09;;;;;;;5.27;1.40;;;;;;;;;;4953802;29;21007;-72
2023/10/29 18:31:35;;;;;;;1.47;1.37;;;;;;;;;;4949304;29;20433;-72
2023/10/29 18:34:01;;;;;;;1.20;1.10;;;;;;;;;;4956308;28;20451;-70
2023/10/29 18:36:28;;;;;;;2.70;1.93;;;;;;;;;;4972863;28;20463;-72
2023/10/29 18:38:56;;;;;;;5.90;1.40;;;;;;;;;;4972896;28;20443;-72
2023/10/29 18:41:23;;;;;;;1.83;1.50;;;;;;;;;;4963592;28;20437;-72
2023/10/29 18:43:50;;;;;;;9.10;1.70;;;;;;;;;;4953004;29;20449;-72
2023/10/29 18:46:17;;;;;;;1.43;1.37;;;;;;;;;;4953992;29;20424;-74
2023/10/29 18:48:43;;;;;;;4.20;1.37;;;;;;;;;;4953857;29;20420;-74
2023/10/29 18:51:09;;;;;;;1.30;1.20;;;;;;;;;;4956386;28;20512;-71
2023/10/29 18:53:35;;;;;;;2.27;1.60;;;;;;;;;;4958321;29;20496;-73
2023/10/29 18:56:02;;;;;;;1.70;1.33;;;;;;;;;;4951510;29;20536;-72
2023/10/29 18:58:28;;;;;;;1.90;1.30;;;;;;;;;;4957055;29;20424;-72
2023/10/29 19:00:54;;;;;;;3.80;1.60;;;;;;;;;;4957388;29;20777;-72
2023/10/29 19:03:20;;;;;;;1.80;1.50;;;;;;;;;;4955999;28;20552;-71
2023/10/29 19:05:46;;;;;;;1.63;1.30;;;;;;;;;;4957199;29;20464;-72
2023/10/29 19:08:12;;;;;;;1.70;1.60;;;;;;;;;;4955939;29;20447;-73
2023/10/29 19:10:38;;;;;;;1.90;1.40;;;;;;;;;;4957578;29;20413;-74
2023/10/29 19:13:04;;;;;;;3.10;1.73;;;;;;;;;;4957431;28;20443;-73
2023/10/29 19:15:33;;;;;;;2.00;1.30;;;;;;;;;;4957215;29;20452;-73
2023/10/29 19:18:01;;;;;;;3.37;1.10;;;;;;;;;;4957277;29;20408;-73
2023/10/29 19:20:27;;;;;;;3.20;1.80;;;;;;;;;;4957046;29;20786;-73
2023/10/29 19:22:53;;;;;;;2.60;1.30;;;;;;;;;;4956654;29;20947;-75
2023/10/29 19:25:19;;;;;;;2.80;1.50;;;;;;;;;;4957084;29;20531;-74
2023/10/29 19:27:46;;;;;;;3.93;2.40;;;;;;;;;;4956294;29;20500;-74
2023/10/29 19:30:12;;;;;;;1.97;1.40;;;;;;;;;;4964178;28;20425;-73
2023/10/29 19:32:40;;;;;;;4.43;1.70;;;;;;;;;;4939240;29;20465;-73
2023/10/29 19:35:07;;;;;;;1.13;1.10;;;;;;;;;;4937586;29;20812;-71
2023/10/29 19:37:34;;;;;;;1.80;1.20;;;;;;;;;;4948332;29;20979;-72
2023/10/29 19:40:02;;;;;;;2.53;1.50;;;;;;;;;;4956814;29;20461;-71
2023/10/29 19:42:28;;;;;;;2.77;1.40;;;;;;;;;;4957297;29;20424;-73
2023/10/29 19:44:55;;;;;;;1.40;1.10;;;;;;;;;;4957186;29;20455;-73
2023/10/29 19:47:21;;;;;;;3.70;1.40;;;;;;;;;;4957248;29;20413;-72
2023/10/29 19:49:47;;;;;;;2.83;1.60;;;;;;;;;;4956638;29;20419;-72
2023/10/29 19:52:14;;;;;;;2.60;1.27;;;;;;;;;;4948621;29;20491;-73
2023/10/29 19:54:40;;;;;;;2.20;1.50;;;;;;;;;;4956768;29;20494;-73
2023/10/29 19:57:06;;;;;;;1.47;1.30;;;;;;;;;;4969209;28;20927;-73
2023/10/29 19:59:32;;;;;;;4.17;1.60;;;;;;;;;;4975784;28;20408;-72
2023/10/29 20:01:58;;;;;;;2.33;1.57;;;;;;;;;;4957744;28;20504;-73
2023/10/29 20:04:24;;;;;;;1.37;1.30;;;;;;;;;;4975544;28;20947;-74
2023/10/29 20:06:50;;;;;;;1.33;1.27;;;;;;;;;;4959333;28;20447;-74
2023/10/29 20:09:16;;;;;;;2.90;1.57;;;;;;;;;;4950385;29;20974;-73
2023/10/29 20:11:42;;;;;;;2.30;1.43;;;;;;;;;;4961675;28;20439;-73
2023/10/29 20:14:10;;;;;;;2.10;1.60;;;;;;;;;;4948616;29;20461;-74
2023/10/29 20:16:35;;;;;;;1.90;1.60;;;;;;;;;;4948578;29;20428;-71
2023/10/29 20:19:02;;;;;;;2.13;1.73;;;;;;;;;;4948045;29;20421;-72
2023/10/29 20:21:31;;;;;;;4.47;2.10;;;;;;;;;;4955948;29;20440;-72
2023/10/29 20:23:57;;;;;;;2.40;1.50;;;;;;;;;;4956195;28;20452;-72
2023/10/29 20:26:24;;;;;;;1.63;1.53;;;;;;;;;;4949910;29;20512;-73
2023/10/29 20:28:50;;;;;;;3.20;2.10;;;;;;;;;;4956040;29;20425;-72
2023/10/29 20:31:16;;;;;;;2.70;1.77;;;;;;;;;;4955182;29;20432;-71
2023/10/29 20:33:43;;;;;;;2.13;1.97;;;;;;;;;;4955664;29;20487;-72
2023/10/29 20:36:12;;;;;;;2.00;1.93;;;;;;;;;;4955456;29;20834;-72
2023/10/29 20:38:38;;;;;;;3.67;2.20;;;;;;;;;;4955553;29;20507;-71
2023/10/29 20:41:08;;;;;;;3.23;2.70;;;;;;;;;;4955338;29;20424;-72